»·PEaware :: CGAIT KVNY-KLAS

CGAIT :: KVNY-KLAS

FLIGHT INFORMATION

Flight Status: Arrived
Operator: Unknown
More flights by this operator :: More flights under this callsign
Pilot: Paul A. (29629)
Aircraft: Unknown
(EPIC)
More flights by this aircraft type
Origin: KVNY Van Nuys
United States
Destination: KLAS McCarran Intl
United States
More flights between these airports :: More routes between these airports
Route: RSCO3 DAG CRESO4
File this flight plan on PilotEdge
Remarks:
Altitude:
(Current/Filed)
24,000ft
Speed:
(Current/Filed)
330kts
Departed: 17-May-20 03:17 PM
Arrived: 17-May-20 04:11 PM
Distance/Time
Traveled:
199nm/0:53
Distance/Time
To Go:
Arrived

Flight Plot

Page will automatically refresh every two minutes.


Map Options




Map Legend


Flown Route
Filed Route
Departure Airport
Arrival Airport
Navaid (VOR, NDB)
Fix

Horizontal Profiles

Position Reports

Time Latitude Longitude Heading Altitude Ground
Speed
17-May-20 14:42 34.218680 -118.496141 184 805ft 0kts
17-May-20 14:43 34.218680 -118.496141 184 805ft 0kts
17-May-20 14:44 34.218680 -118.496141 184 805ft 0kts
17-May-20 14:45 34.218680 -118.496141 184 805ft 0kts
17-May-20 14:46 34.218680 -118.496141 184 805ft 0kts
17-May-20 14:47 34.218680 -118.496141 184 805ft 0kts
17-May-20 14:48 34.218680 -118.496141 184 805ft 0kts
17-May-20 14:49 34.218680 -118.496141 184 805ft 0kts
17-May-20 14:50 34.218680 -118.496141 184 805ft 0kts
17-May-20 14:51 34.218680 -118.496141 184 805ft 0kts
17-May-20 14:52 34.218680 -118.496141 184 805ft 0kts
17-May-20 14:53 34.218680 -118.496141 184 805ft 0kts
17-May-20 14:54 34.218680 -118.496141 184 805ft 0kts
17-May-20 14:55 34.218680 -118.496141 184 805ft 0kts
17-May-20 14:56 34.218680 -118.496141 184 805ft 0kts
17-May-20 14:57 34.218680 -118.496141 184 805ft 0kts
17-May-20 14:58 34.218680 -118.496141 184 805ft 0kts
17-May-20 14:59 34.218680 -118.496141 184 805ft 0kts
17-May-20 15:00 34.218680 -118.496141 184 805ft 0kts
17-May-20 15:01 34.218680 -118.496141 184 805ft 0kts
17-May-20 15:02 34.218680 -118.496141 184 805ft 0kts
17-May-20 15:03 34.218680 -118.496141 184 805ft 0kts
17-May-20 15:04 34.218680 -118.496141 184 805ft 0kts
17-May-20 15:05 34.218680 -118.496141 184 805ft 0kts
17-May-20 15:06 34.218680 -118.496141 184 805ft 0kts
17-May-20 15:07 34.218680 -118.496141 184 805ft 0kts
17-May-20 15:08 34.218680 -118.496141 184 805ft 0kts
17-May-20 15:09 34.218680 -118.496141 184 805ft 0kts
17-May-20 15:10 34.218680 -118.496141 184 805ft 0kts
17-May-20 15:11 34.217275 -118.493574 98 805ft 19kts
17-May-20 15:12 34.218692 -118.492278 55 805ft 0kts
17-May-20 15:13 34.218695 -118.492274 55 805ft 0kts
17-May-20 15:14 34.218696 -118.492272 55 805ft 0kts
17-May-20 15:15 34.218837 -118.491526 101 805ft 18kts
17-May-20 15:16 34.189641 -118.488228 175 1236ft 201kts
17-May-20 15:17 34.132914 -118.478411 171 3978ft 223kts
17-May-20 15:18 34.070340 -118.500866 249 4035ft 284kts
17-May-20 15:19 34.094110 -118.593485 292 4041ft 302kts
17-May-20 15:20 34.136618 -118.679890 332 4275ft 306kts
17-May-20 15:21 34.186834 -118.637353 90 4408ft 245kts
17-May-20 15:22 34.223793 -118.579988 35 6298ft 230kts
17-May-20 15:23 34.278022 -118.532770 36 9015ft 250kts
17-May-20 15:24 34.335595 -118.482480 34 11722ft 263kts
17-May-20 15:25 34.397891 -118.428019 34 13882ft 284kts
17-May-20 15:26 34.448877 -118.355690 52 16363ft 283kts
17-May-20 15:27 34.484586 -118.273897 68 17354ft 289kts
17-May-20 15:28 34.513275 -118.182156 79 19274ft 295kts
17-May-20 15:29 34.532355 -118.084226 79 20863ft 304kts
17-May-20 15:30 34.551853 -117.983691 79 21872ft 310kts
17-May-20 15:31 34.571375 -117.882565 79 23035ft 302kts
17-May-20 15:32 34.590546 -117.782709 79 23889ft 306kts
17-May-20 15:33 34.610552 -117.678510 78 24020ft 327kts
17-May-20 15:34 34.631505 -117.569147 78 24022ft 338kts
17-May-20 15:35 34.652887 -117.456962 78 24022ft 343kts
17-May-20 15:36 34.674466 -117.343101 79 24021ft 350kts
17-May-20 15:38 34.696314 -117.227210 79 24018ft 353kts
17-May-20 15:39 34.718173 -117.110607 79 24017ft 354kts
17-May-20 15:40 34.746322 -116.996817 59 23993ft 355kts
17-May-20 15:41 34.798711 -116.895218 57 23943ft 354kts
17-May-20 15:42 34.847391 -116.792179 82 23934ft 349kts
17-May-20 15:43 34.834157 -116.679171 73 23946ft 343kts
17-May-20 15:44 34.910066 -116.622631 26 20850ft 342kts
17-May-20 15:45 34.976574 -116.545971 62 18025ft 331kts
17-May-20 15:46 35.020023 -116.448788 63 16716ft 320kts
17-May-20 15:47 35.063721 -116.350181 63 16534ft 339kts
17-May-20 15:48 35.108759 -116.248295 64 16547ft 341kts
17-May-20 15:49 35.153950 -116.145741 64 16529ft 344kts
17-May-20 15:50 35.199290 -116.042539 64 16509ft 346kts
17-May-20 15:51 35.246302 -115.935197 64 15668ft 359kts
17-May-20 15:52 35.293016 -115.828198 64 15239ft 358kts
17-May-20 15:53 35.354610 -115.728612 48 13650ft 366kts
17-May-20 15:54 35.421529 -115.639300 48 12080ft 349kts
17-May-20 15:54 35.475724 -115.566804 48 10806ft 344kts
17-May-20 15:55 35.537874 -115.483535 49 10045ft 316kts
17-May-20 15:57 35.606095 -115.391882 48 10046ft 308kts
17-May-20 15:57 35.654195 -115.327115 49 10046ft 306kts
17-May-20 15:58 35.711498 -115.249798 49 10046ft 306kts
17-May-20 16:00 35.789587 -115.182142 11 9734ft 304kts
17-May-20 16:00 35.858376 -115.163656 11 7893ft 303kts
17-May-20 16:01 35.936595 -115.142879 11 7033ft 260kts
17-May-20 16:02 36.000972 -115.125900 11 6975ft 222kts
17-May-20 16:03 36.062328 -115.109884 11 5560ft 217kts
17-May-20 16:04 36.113660 -115.096795 11 5488ft 164kts
17-May-20 16:05 36.157117 -115.083609 11 5232ft 152kts
17-May-20 16:06 36.173379 -115.095514 218 3312ft 151kts
17-May-20 16:07 36.146259 -115.126063 212 2438ft 134kts
17-May-20 16:08 36.115818 -115.147438 199 2711ft 81kts
17-May-20 16:09 36.096890 -115.158018 198 2092ft 61kts
17-May-20 16:10 36.089367 -115.163406 294 2128ft 3kts
17-May-20 16:11 36.089371 -115.163416 294 2128ft 0kts
17-May-20 16:12 36.089371 -115.163416 294 2128ft 0kts
17-May-20 16:13 36.089502 -115.163782 292 2129ft 11kts
17-May-20 16:14 36.094164 -115.162091 345 2110ft 16kts
17-May-20 16:15 36.094880 -115.162619 321 2110ft 0kts
17-May-20 16:16 36.094880 -115.162619 321 2110ft 0kts
17-May-20 16:17 36.094880 -115.162619 321 2110ft 0kts

Navigation Log

Ident Type
Flight plan parsing failed, navigation log unavailable